Time;durP1;ratioP1;P1;durP2;ratioP2;P2;SDS_P1;SDS_P2;PMS_P1;PMS_P2;Temp;Humidity;BMP_temperature;BMP_pressure;BME280_temperature;BME280_humidity;BME280_pressure;Samples;Min_cycle;Max_cycle;Signal;HPM_P1;HPM_P2
2021/04/29 00:01:48;;;;;;;0.80;0.35;;;24.10;33.20;;;;;;5028783;28;20495;-46
2021/04/29 00:04:13;;;;;;;0.63;0.40;;;24.10;33.10;;;;;;5029140;28;20021;-47
2021/04/29 00:06:39;;;;;;;1.10;0.30;;;24.10;33.10;;;;;;5031301;28;20514;-45
2021/04/29 00:09:05;;;;;;;0.80;0.30;;;24.00;33.10;;;;;;5032239;28;20034;-47
2021/04/29 00:11:33;;;;;;;1.65;0.30;;;24.10;33.20;;;;;;5037557;28;20100;-46
2021/04/29 00:13:59;;;;;;;0.85;0.38;;;24.00;33.10;;;;;;5033414;28;20032;-45
2021/04/29 00:16:25;;;;;;;0.50;0.25;;;24.00;33.10;;;;;;5025123;28;20034;-44
2021/04/29 00:18:50;;;;;;;2.40;0.30;;;24.00;33.10;;;;;;5027161;28;20461;-43
2021/04/29 00:21:16;;;;;;;0.60;0.25;;;24.00;33.10;;;;;;5028831;28;20503;-47
2021/04/29 00:23:41;;;;;;;0.40;0.20;;;24.00;33.10;;;;;;5031226;28;20029;-48
2021/04/29 00:26:07;;;;;;;0.70;0.30;;;24.00;33.10;;;;;;5030115;28;20077;-49
2021/04/29 00:28:33;;;;;;;1.67;0.30;;;24.00;33.10;;;;;;5027948;28;20037;-49
2021/04/29 00:30:58;;;;;;;0.50;0.20;;;24.00;33.20;;;;;;5029807;28;20040;-46
2021/04/29 00:33:24;;;;;;;0.80;0.30;;;24.00;33.10;;;;;;5031272;28;20030;-45
2021/04/29 00:35:49;;;;;;;0.93;0.32;;;24.00;33.20;;;;;;5028869;28;20465;-49
2021/04/29 00:38:16;;;;;;;1.08;0.30;;;24.00;33.60;;;;;;5028862;28;20568;-48
2021/04/29 00:40:42;;;;;;;1.65;0.40;;;23.90;33.60;;;;;;5038426;28;20021;-48
2021/04/29 00:43:11;;;;;;;1.55;0.28;;;23.90;33.10;;;;;;5035484;28;20368;-48
2021/04/29 00:45:37;;;;;;;0.45;0.15;;;23.90;33.10;;;;;;5029012;28;20033;-46
2021/04/29 00:48:03;;;;;;;1.02;0.20;;;23.90;33.10;;;;;;5028474;28;20040;-46
2021/04/29 00:50:28;;;;;;;0.98;0.28;;;23.90;33.10;;;;;;5029635;28;20104;-46
2021/04/29 00:52:54;;;;;;;0.88;0.13;;;23.90;33.10;;;;;;5028572;28;20212;-44
2021/04/29 00:55:20;;;;;;;1.40;0.40;;;23.90;33.10;;;;;;5029439;28;20410;-45
2021/04/29 00:57:45;;;;;;;0.95;0.20;;;23.90;33.20;;;;;;5028212;28;20041;-44
2021/04/29 01:00:12;;;;;;;0.47;0.20;;;23.90;33.10;;;;;;5029304;28;20040;-49
2021/04/29 01:02:42;;;;;;;0.52;0.30;;;23.90;33.20;;;;;;5029465;28;20056;-44
2021/04/29 01:05:35;;;;;;;0.97;0.37;;;23.90;33.10;;;;;;5031055;28;20033;-44
2021/04/29 01:08:12;;;;;;;0.70;0.20;;;23.90;33.20;;;;;;5028225;28;20272;-46
2021/04/29 01:11:15;;;;;;;0.35;0.20;;;23.80;33.10;;;;;;5029165;28;20091;-47
2021/04/29 01:13:47;;;;;;;0.70;0.20;;;23.80;33.10;;;;;;5022592;28;20033;-47
2021/04/29 01:16:15;;;;;;;0.63;0.20;;;23.80;33.10;;;;;;5031529;28;20025;-49
2021/04/29 01:18:41;;;;;;;0.63;0.30;;;23.80;33.10;;;;;;5030799;28;20032;-49
2021/04/29 01:21:12;;;;;;;0.50;0.20;;;23.80;33.20;;;;;;5028988;28;20424;-47
2021/04/29 01:23:41;;;;;;;1.05;0.32;;;23.80;33.20;;;;;;5033482;28;20122;-50
2021/04/29 01:26:31;;;;;;;0.88;0.20;;;23.80;33.20;;;;;;5036673;28;20025;-46
2021/04/29 01:29:04;;;;;;;0.70;0.30;;;23.80;33.10;;;;;;5034648;28;20126;-47
2021/04/29 01:31:32;;;;;;;1.10;0.20;;;23.80;33.10;;;;;;5035960;28;20112;-46
2021/04/29 01:33:59;;;;;;;0.70;0.30;;;23.80;33.10;;;;;;5044264;28;20041;-48
2021/04/29 01:36:26;;;;;;;0.52;0.30;;;23.80;33.10;;;;;;5037550;28;20034;-47
2021/04/29 01:38:52;;;;;;;0.50;0.15;;;23.80;33.10;;;;;;5041678;28;20033;-45
2021/04/29 01:41:19;;;;;;;0.90;0.20;;;23.70;33.10;;;;;;5037679;28;20083;-46
2021/04/29 01:43:45;;;;;;;0.65;0.20;;;23.70;33.10;;;;;;5034348;28;20031;-45
2021/04/29 01:46:11;;;;;;;0.82;0.50;;;23.80;33.10;;;;;;5035419;28;20026;-46
2021/04/29 01:48:37;;;;;;;0.95;0.30;;;23.70;33.10;;;;;;5034280;28;20025;-43
2021/04/29 01:51:03;;;;;;;0.80;0.30;;;23.70;33.10;;;;;;5038062;28;20024;-47
2021/04/29 01:53:29;;;;;;;0.50;0.30;;;23.70;33.10;;;;;;5015574;28;20026;-46
2021/04/29 01:55:56;;;;;;;0.75;0.28;;;23.70;33.10;;;;;;5036640;28;20111;-45
2021/04/29 01:58:22;;;;;;;0.85;0.30;;;23.70;33.10;;;;;;5032855;28;20494;-47
2021/04/29 02:00:49;;;;;;;0.32;0.10;;;23.70;33.10;;;;;;5035065;28;20021;-46
2021/04/29 02:03:15;;;;;;;0.60;0.20;;;23.70;33.10;;;;;;5035514;28;20024;-46
2021/04/29 02:05:40;;;;;;;0.80;0.30;;;23.70;33.10;;;;;;5028058;28;20022;-46
2021/04/29 02:08:06;;;;;;;0.55;0.20;;;23.70;33.10;;;;;;5034560;28;20061;-47
2021/04/29 02:10:32;;;;;;;0.65;0.30;;;23.70;33.10;;;;;;5030447;28;20101;-48
2021/04/29 02:12:57;;;;;;;0.40;0.20;;;23.70;33.10;;;;;;5034110;28;20025;-47
2021/04/29 02:15:38;;;;;;;0.60;0.30;;;23.60;33.20;;;;;;5032787;28;20382;-44
2021/04/29 02:18:12;;;;;;;0.80;0.30;;;23.70;33.10;;;;;;5034702;28;20022;-44
2021/04/29 02:20:43;;;;;;;0.80;0.20;;;23.70;33.20;;;;;;5039237;28;20112;-46
2021/04/29 02:23:12;;;;;;;0.38;0.20;;;23.70;33.20;;;;;;5035993;28;20501;-47
2021/04/29 02:25:41;;;;;;;0.65;0.30;;;23.70;33.10;;;;;;5036702;28;20060;-47
2021/04/29 02:28:07;;;;;;;0.47;0.20;;;23.70;33.20;;;;;;5041478;28;20021;-49
2021/04/29 02:30:32;;;;;;;0.52;0.15;;;23.70;33.20;;;;;;5037397;28;20544;-45
2021/04/29 02:33:01;;;;;;;0.70;0.20;;;23.60;33.10;;;;;;5037212;28;20029;-46
2021/04/29 02:35:28;;;;;;;0.55;0.20;;;23.60;33.10;;;;;;5038479;28;20032;-49
2021/04/29 02:37:55;;;;;;;0.68;0.20;;;23.60;33.20;;;;;;5032502;28;20702;-47
2021/04/29 02:40:22;;;;;;;1.35;0.20;;;23.60;33.20;;;;;;5033274;28;20347;-48
2021/04/29 02:42:48;;;;;;;1.05;0.30;;;23.60;33.20;;;;;;5032333;28;20033;-47
2021/04/29 02:45:16;;;;;;;0.70;0.32;;;23.60;33.20;;;;;;5031271;28;20033;-49
2021/04/29 02:47:44;;;;;;;0.55;0.20;;;23.60;33.20;;;;;;5031021;28;20025;-47
2021/04/29 02:50:12;;;;;;;0.50;0.20;;;23.60;33.20;;;;;;5032078;28;20061;-44
2021/04/29 02:52:39;;;;;;;0.85;0.30;;;23.60;33.20;;;;;;5040079;28;20026;-44
2021/04/29 02:55:08;;;;;;;0.70;0.28;;;23.60;33.20;;;;;;5029982;28;20409;-46
2021/04/29 02:57:34;;;;;;;0.88;0.20;;;23.60;33.30;;;;;;5031144;28;20040;-44
2021/04/29 03:00:00;;;;;;;0.70;0.30;;;23.60;33.30;;;;;;5035501;28;20112;-46
2021/04/29 03:02:26;;;;;;;0.80;0.20;;;23.60;33.20;;;;;;5042246;28;20110;-45
2021/04/29 03:04:52;;;;;;;1.23;0.20;;;23.60;33.30;;;;;;5029239;28;20060;-45
2021/04/29 03:07:18;;;;;;;1.17;0.13;;;23.60;33.30;;;;;;5030788;28;20021;-45
2021/04/29 03:09:43;;;;;;;0.98;0.20;;;23.60;33.30;;;;;;5031173;28;20021;-49
2021/04/29 03:12:09;;;;;;;1.10;0.30;;;23.60;33.30;;;;;;5033857;28;20076;-46
2021/04/29 03:14:35;;;;;;;0.65;0.20;;;23.60;33.20;;;;;;5021510;28;20109;-49
2021/04/29 03:17:00;;;;;;;0.50;0.28;;;23.60;33.30;;;;;;5030856;28;20040;-45
2021/04/29 03:19:26;;;;;;;0.70;0.10;;;23.50;33.30;;;;;;5031611;28;20083;-45
2021/04/29 03:21:52;;;;;;;1.45;0.20;;;23.60;33.30;;;;;;5030619;28;20045;-46
2021/04/29 03:24:17;;;;;;;0.82;0.22;;;23.60;33.30;;;;;;5030384;28;20072;-47
2021/04/29 03:26:43;;;;;;;0.85;0.20;;;23.50;33.30;;;;;;5030815;28;20037;-49
2021/04/29 03:29:08;;;;;;;0.38;0.17;;;23.50;33.30;;;;;;5032843;28;20052;-46
2021/04/29 03:31:34;;;;;;;0.45;0.20;;;23.50;33.30;;;;;;5031697;28;20029;-49
2021/04/29 03:34:00;;;;;;;0.40;0.10;;;23.50;33.20;;;;;;5033632;28;20086;-46
2021/04/29 03:36:25;;;;;;;0.68;0.20;;;23.50;33.30;;;;;;5037288;28;20087;-46
2021/04/29 03:38:52;;;;;;;0.90;0.30;;;23.50;33.30;;;;;;5034915;28;21025;-48
2021/04/29 03:41:17;;;;;;;0.70;0.30;;;23.50;33.30;;;;;;5043117;28;20021;-47
2021/04/29 03:43:43;;;;;;;0.52;0.20;;;23.50;33.30;;;;;;5032530;28;20540;-47
2021/04/29 03:46:09;;;;;;;0.98;0.20;;;23.50;33.30;;;;;;5028982;28;20095;-46
2021/04/29 03:48:34;;;;;;;0.60;0.15;;;23.50;33.40;;;;;;5030012;28;20028;-46
2021/04/29 03:51:00;;;;;;;1.10;0.20;;;23.50;33.30;;;;;;5028353;28;20017;-48
2021/04/29 03:53:25;;;;;;;0.50;0.20;;;23.50;33.30;;;;;;5031342;28;20547;-44
2021/04/29 03:55:51;;;;;;;0.60;0.20;;;23.40;33.30;;;;;;5029827;28;20072;-45
2021/04/29 03:58:17;;;;;;;0.82;0.20;;;23.40;33.30;;;;;;5030110;28;20041;-46
2021/04/29 04:00:42;;;;;;;0.50;0.20;;;23.50;33.40;;;;;;5037648;28;20075;-45
2021/04/29 04:03:08;;;;;;;0.57;0.20;;;23.50;33.40;;;;;;5030474;28;20495;-46
2021/04/29 04:05:33;;;;;;;0.50;0.20;;;23.40;33.40;;;;;;5030356;28;20100;-48
2021/04/29 04:07:59;;;;;;;2.90;0.20;;;23.40;33.40;;;;;;5029524;28;20060;-45
2021/04/29 04:10:24;;;;;;;0.45;0.20;;;23.40;33.40;;;;;;5030280;28;20072;-42
2021/04/29 04:12:50;;;;;;;0.43;0.10;;;23.40;33.40;;;;;;5028374;28;20033;-46
2021/04/29 04:15:16;;;;;;;0.47;0.20;;;23.40;33.40;;;;;;5029968;28;20029;-50
2021/04/29 04:17:41;;;;;;;0.47;0.10;;;23.40;33.40;;;;;;5030151;28;20459;-47
2021/04/29 04:20:08;;;;;;;0.95;0.20;;;23.40;33.40;;;;;;5037797;28;20083;-47
2021/04/29 04:22:33;;;;;;;0.52;0.20;;;23.40;33.30;;;;;;5032131;28;20037;-46
2021/04/29 04:24:59;;;;;;;0.70;0.30;;;23.40;33.40;;;;;;5030672;28;20565;-47
2021/04/29 04:27:24;;;;;;;0.55;0.20;;;23.40;33.40;;;;;;5030594;28;20021;-50
2021/04/29 04:29:50;;;;;;;0.50;0.20;;;23.40;33.40;;;;;;5043485;28;20025;-45
2021/04/29 04:32:16;;;;;;;0.80;0.10;;;23.40;33.90;;;;;;5037435;28;20039;-49
2021/04/29 04:34:41;;;;;;;0.40;0.20;;;23.40;33.40;;;;;;5041663;28;20086;-48
2021/04/29 04:37:07;;;;;;;1.95;0.63;;;23.40;33.40;;;;;;5045578;28;20029;-48
2021/04/29 04:39:35;;;;;;;0.40;0.10;;;23.40;33.40;;;;;;5045703;28;20029;-44
2021/04/29 04:42:02;;;;;;;0.50;0.20;;;23.40;33.40;;;;;;5035085;28;20021;-47
2021/04/29 04:44:27;;;;;;;1.92;0.20;;;23.40;33.40;;;;;;5031087;28;20037;-48
2021/04/29 04:46:53;;;;;;;0.45;0.20;;;23.40;33.40;;;;;;5037732;28;20033;-46
2021/04/29 04:49:18;;;;;;;0.57;0.22;;;23.40;33.50;;;;;;5029909;28;20022;-46
2021/04/29 04:51:44;;;;;;;1.95;0.20;;;23.40;33.50;;;;;;5029398;28;20033;-48
2021/04/29 04:54:09;;;;;;;0.40;0.20;;;23.40;33.50;;;;;;5030875;28;20083;-45
2021/04/29 04:56:36;;;;;;;0.70;0.13;;;23.40;33.50;;;;;;5026383;28;20152;-48
2021/04/29 04:59:02;;;;;;;0.45;0.13;;;23.30;33.50;;;;;;5068153;22;20053;-44
2021/04/29 05:01:28;;;;;;;1.70;0.30;;;23.40;33.50;;;;;;5013231;28;20025;-45
2021/04/29 05:03:54;;;;;;;0.47;0.20;;;23.30;33.40;;;;;;5012251;28;20037;-46
2021/04/29 05:06:20;;;;;;;0.50;0.20;;;23.30;33.40;;;;;;5014353;28;20029;-44
2021/04/29 05:08:45;;;;;;;0.40;0.17;;;23.40;33.50;;;;;;5015238;28;20032;-46
2021/04/29 05:11:11;;;;;;;0.65;0.20;;;23.30;33.50;;;;;;5011575;28;20021;-46
2021/04/29 05:13:36;;;;;;;1.80;0.30;;;23.30;33.40;;;;;;5014355;28;20487;-41
2021/04/29 05:16:02;;;;;;;0.52;0.20;;;23.30;33.40;;;;;;5011722;28;20069;-45
2021/04/29 05:18:28;;;;;;;0.80;0.20;;;23.30;33.40;;;;;;5011514;28;20032;-45
2021/04/29 05:20:54;;;;;;;0.40;0.28;;;23.40;33.50;;;;;;5011798;28;20086;-45
2021/04/29 05:23:19;;;;;;;0.60;0.20;;;23.30;33.40;;;;;;5011670;28;20030;-45
2021/04/29 05:25:45;;;;;;;0.63;0.13;;;23.30;33.40;;;;;;5027101;28;20029;-47
2021/04/29 05:28:10;;;;;;;0.60;0.30;;;23.30;33.40;;;;;;5012840;28;20030;-45
2021/04/29 05:30:36;;;;;;;1.30;0.32;;;23.30;33.40;;;;;;5014127;28;20034;-44
2021/04/29 05:33:02;;;;;;;1.40;0.52;;;23.30;33.50;;;;;;5011496;28;20438;-44
2021/04/29 05:35:27;;;;;;;0.73;0.20;;;23.30;33.50;;;;;;5029449;28;20029;-45
2021/04/29 05:37:53;;;;;;;2.45;0.20;;;23.30;33.40;;;;;;5011408;28;20080;-45
2021/04/29 05:40:18;;;;;;;0.47;0.13;;;23.30;33.40;;;;;;5011671;28;20623;-46
2021/04/29 05:42:44;;;;;;;1.48;0.38;;;23.30;33.50;;;;;;5011551;28;20030;-46
2021/04/29 05:45:11;;;;;;;1.70;0.50;;;23.30;33.50;;;;;;5008469;28;20053;-47
2021/04/29 05:47:37;;;;;;;1.05;0.30;;;23.30;33.40;;;;;;5015205;28;20034;-45
2021/04/29 05:50:04;;;;;;;1.13;0.17;;;23.30;33.50;;;;;;5018735;28;20121;-46
2021/04/29 05:52:31;;;;;;;0.80;0.30;;;23.30;33.50;;;;;;5016221;28;20026;-48
2021/04/29 05:54:57;;;;;;;0.93;0.30;;;23.30;33.50;;;;;;5014647;28;20057;-44
2021/04/29 05:57:23;;;;;;;0.45;0.20;;;23.30;33.60;;;;;;5028214;28;20034;-46
2021/04/29 05:59:48;;;;;;;1.73;0.55;;;23.20;33.50;;;;;;5017157;28;20494;-46
2021/04/29 06:02:14;;;;;;;1.05;0.30;;;23.30;33.40;;;;;;5014003;28;20255;-46
2021/04/29 06:04:40;;;;;;;1.23;0.20;;;23.30;33.40;;;;;;5013415;28;20041;-46
2021/04/29 06:07:05;;;;;;;1.58;0.38;;;23.30;33.40;;;;;;5017364;28;20022;-45
2021/04/29 06:09:31;;;;;;;2.25;0.30;;;23.20;33.40;;;;;;5013404;28;20061;-46
2021/04/29 06:11:56;;;;;;;1.40;0.57;;;23.20;33.40;;;;;;5014062;28;20088;-45
2021/04/29 06:14:22;;;;;;;1.10;0.38;;;23.30;33.60;;;;;;5006779;28;20104;-44
2021/04/29 06:16:47;;;;;;;0.80;0.40;;;23.30;33.50;;;;;;5015333;28;20022;-44
2021/04/29 06:19:13;;;;;;;0.88;0.30;;;23.30;33.40;;;;;;5013026;28;20458;-45
2021/04/29 06:21:39;;;;;;;2.13;0.50;;;23.30;33.50;;;;;;5015196;28;20046;-45
2021/04/29 06:24:04;;;;;;;1.65;0.38;;;23.30;33.40;;;;;;5013727;28;20045;-43
2021/04/29 06:26:31;;;;;;;1.33;0.40;;;23.30;33.40;;;;;;5013839;28;20454;-45
2021/04/29 06:28:57;;;;;;;0.98;0.38;;;23.30;33.50;;;;;;5018755;28;20029;-43
2021/04/29 06:31:22;;;;;;;1.17;0.40;;;23.30;33.50;;;;;;5019651;28;20037;-46
2021/04/29 06:33:48;;;;;;;1.77;0.20;;;23.30;33.50;;;;;;5013913;28;20092;-46
2021/04/29 06:36:14;;;;;;;1.95;0.40;;;23.30;33.50;;;;;;5013757;28;20058;-46
2021/04/29 06:38:39;;;;;;;3.70;0.40;;;23.30;33.60;;;;;;5017427;28;20025;-45
2021/04/29 06:41:05;;;;;;;1.02;0.50;;;23.30;33.50;;;;;;5013707;28;20515;-43
2021/04/29 06:43:30;;;;;;;0.95;0.50;;;23.30;33.50;;;;;;5021772;28;20013;-45
2021/04/29 06:45:56;;;;;;;0.80;0.30;;;23.30;33.60;;;;;;5012294;28;20049;-43
2021/04/29 06:48:22;;;;;;;1.27;0.55;;;23.30;33.70;;;;;;5014195;28;20026;-45
2021/04/29 06:50:48;;;;;;;1.17;0.40;;;23.30;33.70;;;;;;5015292;28;20021;-45
2021/04/29 06:53:13;;;;;;;0.75;0.40;;;23.30;33.40;;;;;;5011175;28;20145;-45
2021/04/29 06:55:39;;;;;;;0.77;0.38;;;23.30;33.70;;;;;;5015787;28;20106;-46
2021/04/29 06:58:05;;;;;;;0.85;0.30;;;23.30;33.70;;;;;;5017621;28;20049;-46
2021/04/29 07:00:32;;;;;;;1.15;0.60;;;23.30;33.70;;;;;;5014257;28;20447;-44
2021/04/29 07:02:59;;;;;;;1.35;0.30;;;23.30;33.70;;;;;;5017892;28;20521;-44
2021/04/29 07:05:25;;;;;;;1.55;0.30;;;23.30;34.30;;;;;;5013996;28;20540;-44
2021/04/29 07:07:51;;;;;;;2.30;0.60;;;23.30;33.70;;;;;;5013170;28;20431;-46
2021/04/29 07:10:18;;;;;;;2.17;0.40;;;23.30;33.70;;;;;;5013850;28;20057;-47
2021/04/29 07:12:43;;;;;;;1.20;0.40;;;23.30;33.70;;;;;;5012161;28;20084;-46
2021/04/29 07:15:09;;;;;;;1.85;0.63;;;23.30;33.70;;;;;;5014389;28;20048;-40
2021/04/29 07:17:35;;;;;;;0.65;0.40;;;23.30;33.70;;;;;;5010965;28;20034;-47
2021/04/29 07:20:00;;;;;;;1.42;0.47;;;23.30;33.40;;;;;;5013924;28;20454;-44
2021/04/29 07:22:26;;;;;;;0.80;0.30;;;23.40;33.40;;;;;;5012548;28;20473;-43
2021/04/29 07:24:52;;;;;;;1.85;0.40;;;23.40;33.50;;;;;;5014100;28;20467;-43
2021/04/29 07:27:17;;;;;;;0.80;0.40;;;23.50;33.80;;;;;;5014191;28;20026;-41
2021/04/29 07:29:43;;;;;;;1.17;0.45;;;23.50;33.70;;;;;;5013248;28;20022;-42
2021/04/29 07:32:08;;;;;;;0.80;0.45;;;23.50;34.00;;;;;;5014945;28;20030;-45
2021/04/29 07:34:34;;;;;;;1.75;0.85;;;23.50;34.00;;;;;;5009347;28;20062;-52
2021/04/29 07:37:01;;;;;;;1.30;0.50;;;23.50;34.20;;;;;;5011810;28;20721;-48
2021/04/29 07:39:27;;;;;;;1.75;0.40;;;23.60;34.20;;;;;;5013324;28;20044;-49
2021/04/29 07:41:53;;;;;;;3.15;0.25;;;23.60;34.20;;;;;;5012363;28;20041;-43
2021/04/29 07:44:19;;;;;;;3.65;0.60;;;23.60;34.20;;;;;;5000258;28;20045;-39
2021/04/29 07:46:44;;;;;;;3.42;0.50;;;23.70;34.60;;;;;;5008180;28;20030;-38
2021/04/29 07:49:10;;;;;;;3.45;0.52;;;23.60;34.50;;;;;;5013046;28;20034;-40
2021/04/29 07:51:35;;;;;;;2.45;0.40;;;23.60;35.00;;;;;;5010442;28;20053;-43
2021/04/29 07:54:04;;;;;;;1.60;0.50;;;23.60;34.50;;;;;;5012614;28;20034;-40
2021/04/29 07:56:30;;;;;;;0.93;0.30;;;23.60;34.40;;;;;;5017050;28;20036;-41
2021/04/29 07:58:56;;;;;;;1.63;0.20;;;23.60;34.40;;;;;;5038209;28;20108;-41
2021/04/29 08:01:21;;;;;;;2.42;0.40;;;23.60;34.40;;;;;;5016093;28;20557;-41
2021/04/29 08:03:47;;;;;;;1.02;0.52;;;23.60;34.30;;;;;;5017395;28;20097;-40
2021/04/29 08:06:12;;;;;;;1.48;0.45;;;23.60;34.30;;;;;;5011162;28;20038;-43
2021/04/29 08:08:38;;;;;;;1.20;0.45;;;23.60;34.30;;;;;;5011588;28;20026;-40
2021/04/29 08:11:04;;;;;;;0.77;0.30;;;23.60;34.20;;;;;;5009182;28;20034;-44
2021/04/29 08:13:30;;;;;;;2.83;0.60;;;23.60;34.20;;;;;;5016422;28;20021;-42
2021/04/29 08:15:56;;;;;;;0.65;0.30;;;23.60;34.10;;;;;;5017321;28;20045;-42
2021/04/29 08:18:22;;;;;;;1.02;0.40;;;23.60;34.10;;;;;;5013728;28;20030;-39
2021/04/29 08:20:48;;;;;;;1.20;0.40;;;23.60;34.10;;;;;;5014364;28;20044;-41
2021/04/29 08:23:13;;;;;;;1.63;0.47;;;23.60;34.00;;;;;;5013241;28;20398;-41
2021/04/29 08:25:39;;;;;;;0.82;0.38;;;23.60;34.00;;;;;;5014235;28;20037;-43
2021/04/29 08:28:04;;;;;;;1.40;0.30;;;23.60;34.00;;;;;;5015283;28;20029;-40
2021/04/29 08:30:30;;;;;;;1.45;0.38;;;23.70;34.00;;;;;;5015229;28;20555;-40
2021/04/29 08:32:58;;;;;;;0.68;0.30;;;23.70;34.00;;;;;;5020815;28;20340;-41
2021/04/29 08:35:24;;;;;;;2.08;0.63;;;23.60;33.90;;;;;;5015772;28;20034;-42
2021/04/29 08:37:51;;;;;;;0.82;0.40;;;23.70;33.90;;;;;;5013367;28;20029;-39
2021/04/29 08:40:18;;;;;;;2.70;0.85;;;23.70;33.90;;;;;;5010617;28;20024;-40
2021/04/29 08:42:44;;;;;;;0.90;0.40;;;23.70;33.90;;;;;;5015628;28;20034;-41
2021/04/29 08:45:11;;;;;;;1.02;0.60;;;23.70;33.90;;;;;;5010877;28;20057;-40
2021/04/29 08:47:37;;;;;;;1.58;0.57;;;23.60;33.90;;;;;;5014770;28;20513;-41
2021/04/29 08:50:06;;;;;;;1.20;0.68;;;23.70;34.00;;;;;;5013203;28;20476;-43
2021/04/29 08:52:32;;;;;;;1.40;0.57;;;23.60;33.90;;;;;;5014400;28;20033;-42
2021/04/29 08:54:57;;;;;;;2.47;0.65;;;23.70;34.00;;;;;;5010232;28;20056;-42
2021/04/29 08:57:25;;;;;;;0.60;0.40;;;23.60;33.90;;;;;;5024765;28;20034;-38
2021/04/29 08:59:52;;;;;;;6.45;0.70;;;23.60;33.90;;;;;;5013776;28;20037;-42
2021/04/29 09:02:30;;;;;;;0.93;0.50;;;23.60;33.90;;;;;;5012099;28;20030;-41
2021/04/29 09:04:55;;;;;;;1.73;0.70;;;23.60;33.90;;;;;;5010988;28;20089;-39
2021/04/29 09:07:21;;;;;;;1.10;0.60;;;23.60;33.90;;;;;;5012747;28;20420;-42
2021/04/29 09:09:48;;;;;;;1.55;0.50;;;23.70;34.50;;;;;;5012630;28;20032;-40
2021/04/29 09:12:13;;;;;;;1.27;0.60;;;23.60;33.90;;;;;;5012023;28;20030;-42
2021/04/29 09:14:42;;;;;;;2.35;0.70;;;23.60;33.90;;;;;;5005669;28;20038;-45
2021/04/29 09:17:08;;;;;;;1.73;0.60;;;23.60;34.00;;;;;;4999455;28;20034;-44
2021/04/29 09:19:41;;;;;;;3.55;0.63;;;23.60;33.90;;;;;;5012565;28;20026;-43
2021/04/29 09:22:20;;;;;;;0.90;0.40;;;23.60;33.90;;;;;;5016650;28;20034;-42
2021/04/29 09:24:46;;;;;;;1.55;0.50;;;23.60;33.90;;;;;;5003786;28;20452;-41
2021/04/29 09:27:19;;;;;;;1.90;0.73;;;23.60;33.90;;;;;;5019681;28;20050;-44
2021/04/29 09:29:55;;;;;;;0.95;0.50;;;23.60;33.90;;;;;;5025632;28;20026;-41
2021/04/29 09:32:31;;;;;;;1.50;1.10;;;23.60;34.00;;;;;;5010433;28;20026;-40
2021/04/29 09:34:58;;;;;;;1.00;0.75;;;23.60;33.90;;;;;;5010056;28;20022;-38
2021/04/29 09:37:28;;;;;;;1.17;0.60;;;23.60;33.90;;;;;;5012117;28;20057;-42
2021/04/29 09:39:54;;;;;;;1.40;0.68;;;23.60;33.90;;;;;;5014840;28;20042;-40
2021/04/29 09:42:37;;;;;;;3.13;0.90;;;23.60;33.90;;;;;;5022706;28;20498;-42
2021/04/29 09:45:15;;;;;;;1.58;0.80;;;23.60;34.00;;;;;;5015929;28;20046;-40
2021/04/29 09:47:41;;;;;;;1.42;1.10;;;23.60;34.00;;;;;;5035232;28;20105;-40
2021/04/29 09:50:07;;;;;;;1.10;0.80;;;23.60;34.00;;;;;;5029613;28;20085;-41
2021/04/29 09:52:32;;;;;;;1.25;0.90;;;23.60;34.00;;;;;;5014842;28;20113;-41
2021/04/29 09:55:04;;;;;;;1.42;0.65;;;23.60;33.90;;;;;;5014458;28;20065;-43
2021/04/29 09:57:30;;;;;;;;;;;23.60;33.90;;;;;;5019821;28;20040;-42
2021/04/29 10:00:00;;;;;;;1.60;0.50;;;23.60;33.90;;;;;;5013638;28;20008;-41
2021/04/29 10:02:29;;;;;;;1.00;0.60;;;23.70;33.90;;;;;;5014081;28;20048;-42
2021/04/29 10:04:55;;;;;;;1.10;0.50;;;23.60;33.80;;;;;;5014970;28;20061;-40
2021/04/29 10:07:22;;;;;;;1.73;1.13;;;23.60;33.80;;;;;;5014399;28;20033;-41
2021/04/29 10:09:49;;;;;;;1.35;0.70;;;23.60;33.80;;;;;;5013881;28;20040;-41
2021/04/29 10:12:17;;;;;;;1.58;0.90;;;23.60;33.90;;;;;;5022160;28;20472;-39
2021/04/29 10:14:45;;;;;;;1.98;0.90;;;23.60;33.80;;;;;;5013401;28;20030;-41
2021/04/29 10:17:13;;;;;;;1.85;0.88;;;23.60;33.90;;;;;;5014711;28;20400;-40
2021/04/29 10:19:43;;;;;;;0.95;0.80;;;23.60;33.90;;;;;;5014635;28;20029;-50
2021/04/29 10:22:10;;;;;;;1.77;1.05;;;23.60;33.90;;;;;;5012103;28;20026;-47
2021/04/29 10:24:39;;;;;;;2.80;1.33;;;23.70;33.90;;;;;;5015837;28;20064;-48
2021/04/29 10:27:08;;;;;;;0.90;0.73;;;23.70;33.50;;;;;;5018444;28;20579;-51
2021/04/29 10:29:34;;;;;;;2.03;1.08;;;23.80;33.90;;;;;;5018911;28;20081;-45
2021/04/29 10:32:02;;;;;;;4.20;0.90;;;23.80;33.60;;;;;;5013686;28;20458;-48
2021/04/29 10:34:39;;;;;;;1.00;0.70;;;23.80;34.00;;;;;;5015854;28;20064;-44
2021/04/29 10:37:13;;;;;;;1.27;0.70;;;23.80;33.60;;;;;;5008861;28;20034;-45
2021/04/29 10:39:51;;;;;;;2.95;0.90;;;23.90;34.10;;;;;;5018998;28;20028;-43
2021/04/29 10:42:16;;;;;;;1.63;0.90;;;23.90;33.90;;;;;;5014927;28;20041;-48
2021/04/29 10:44:47;;;;;;;1.50;0.70;;;24.00;34.50;;;;;;5012068;28;20117;-49
2021/04/29 10:47:30;;;;;;;1.85;0.88;;;24.00;34.00;;;;;;5010454;28;20105;-51
2021/04/29 10:50:09;;;;;;;1.70;0.85;;;23.90;33.80;;;;;;5013611;28;20434;-50
2021/04/29 10:52:50;;;;;;;1.73;1.08;;;23.90;34.10;;;;;;5014466;28;20026;-49
2021/04/29 10:55:27;;;;;;;2.13;0.57;;;24.00;34.50;;;;;;5002891;28;20648;-54
2021/04/29 10:57:54;;;;;;;1.60;0.63;;;24.00;35.00;;;;;;5013875;28;20592;-48
2021/04/29 11:00:20;;;;;;;1.50;0.90;;;24.10;35.40;;;;;;5023887;22;20033;-49
2021/04/29 11:02:57;;;;;;;1.35;1.00;;;24.10;35.40;;;;;;5061401;28;20037;-50
2021/04/29 11:05:24;;;;;;;1.15;0.65;;;24.10;35.60;;;;;;5047616;28;20128;-60
2021/04/29 11:07:49;;;;;;;1.02;0.82;;;24.20;35.70;;;;;;5042833;28;20029;-48
2021/04/29 11:10:17;;;;;;;2.10;0.73;;;24.20;35.90;;;;;;5046737;28;20653;-53
2021/04/29 11:12:50;;;;;;;1.70;0.88;;;24.20;35.90;;;;;;5024944;28;20637;-47
2021/04/29 11:15:22;;;;;;;1.90;0.52;;;24.20;35.70;;;;;;5025635;28;20055;-46
2021/04/29 11:18:01;;;;;;;2.85;0.90;;;24.20;35.80;;;;;;5026293;28;20045;-48
2021/04/29 11:20:27;;;;;;;1.55;1.00;;;24.20;35.00;;;;;;5042070;28;20021;-53
2021/04/29 11:22:56;;;;;;;1.70;1.00;;;24.20;35.80;;;;;;5027947;28;20041;-59
2021/04/29 11:25:23;;;;;;;1.77;1.27;;;24.20;34.60;;;;;;5031082;28;20658;-53
2021/04/29 11:27:54;;;;;;;1.23;0.77;;;24.20;34.60;;;;;;5025683;28;20029;-53
2021/04/29 11:30:21;;;;;;;;;;;24.20;35.70;;;;;;5025267;28;20021;-54
2021/04/29 11:32:57;;;;;;;1.58;0.57;;;24.20;36.00;;;;;;5027282;28;20329;-51
2021/04/29 11:35:24;;;;;;;1.85;0.60;;;24.20;35.30;;;;;;5025079;28;20037;-51
2021/04/29 11:37:50;;;;;;;1.13;0.70;;;24.20;36.20;;;;;;5027434;28;20033;-53
2021/04/29 11:40:16;;;;;;;1.15;0.70;;;24.30;36.10;;;;;;5026970;28;20084;-47
2021/04/29 11:42:49;;;;;;;2.78;0.70;;;24.30;35.90;;;;;;5027603;28;20029;-53
2021/04/29 11:45:19;;;;;;;1.20;0.60;;;24.30;33.80;;;;;;5029522;28;20088;-47
2021/04/29 11:47:56;;;;;;;1.33;0.87;;;24.30;33.70;;;;;;5029760;28;20029;-53
2021/04/29 11:50:27;;;;;;;1.20;0.40;;;24.20;33.80;;;;;;5030094;28;20085;-53
2021/04/29 11:53:02;;;;;;;1.00;0.57;;;24.20;33.90;;;;;;5029652;28;20068;-45
2021/04/29 11:55:28;;;;;;;0.70;0.52;;;24.20;33.90;;;;;;5026524;28;20048;-47
2021/04/29 11:58:00;;;;;;;3.08;0.88;;;24.30;34.30;;;;;;5029539;28;20603;-47
2021/04/29 12:00:35;;;;;;;1.00;0.63;;;24.30;35.00;;;;;;5030419;28;20636;-50
2021/04/29 12:03:03;;;;;;;2.00;0.50;;;24.30;34.50;;;;;;5028713;28;20037;-56
2021/04/29 12:05:46;;;;;;;1.13;0.45;;;24.30;34.30;;;;;;5028156;28;20036;-56
2021/04/29 12:08:17;;;;;;;0.80;0.60;;;24.30;35.50;;;;;;5028605;28;20105;-55
2021/04/29 12:10:56;;;;;;;2.95;0.70;;;24.30;34.20;;;;;;5028268;28;20514;-54
2021/04/29 12:13:34;;;;;;;0.75;0.40;;;24.30;34.40;;;;;;5024732;28;20033;-52
2021/04/29 12:16:02;;;;;;;2.25;0.57;;;24.30;34.30;;;;;;5022034;28;20026;-50
2021/04/29 12:18:29;;;;;;;1.27;0.40;;;24.30;34.80;;;;;;5028365;28;20095;-51
2021/04/29 12:20:55;;;;;;;2.08;0.50;;;24.30;34.60;;;;;;5028701;28;20033;-52
2021/04/29 12:23:21;;;;;;;1.17;0.40;;;24.30;33.90;;;;;;5026480;28;20539;-48
2021/04/29 12:26:00;;;;;;;0.77;0.40;;;24.30;34.70;;;;;;5026912;28;20047;-51
2021/04/29 12:28:30;;;;;;;1.02;0.40;;;24.30;34.00;;;;;;5027180;28;20037;-51
2021/04/29 12:30:56;;;;;;;1.63;0.45;;;24.30;34.30;;;;;;5027192;28;20022;-51
2021/04/29 12:33:21;;;;;;;1.42;0.50;;;24.30;34.50;;;;;;5022366;28;20061;-45
2021/04/29 12:35:47;;;;;;;1.80;0.43;;;24.30;34.50;;;;;;5009414;28;20042;-45
2021/04/29 12:38:15;;;;;;;1.17;0.52;;;24.30;33.90;;;;;;5025006;28;20033;-52
2021/04/29 12:40:41;;;;;;;0.73;0.40;;;24.30;34.10;;;;;;5029126;28;20029;-48
2021/04/29 12:43:14;;;;;;;3.58;0.50;;;24.30;34.00;;;;;;5028182;28;20060;-47
2021/04/29 12:45:51;;;;;;;1.02;0.45;;;24.30;34.50;;;;;;5021095;28;20042;-56
2021/04/29 12:48:34;;;;;;;1.10;0.32;;;24.30;34.20;;;;;;5028573;28;20844;-54
2021/04/29 12:51:03;;;;;;;1.58;0.50;;;24.30;34.20;;;;;;5024599;28;20017;-53